Time,TemperatureF,DewpointF,PressureIn,WindDirection,WindDirectionDegrees,WindSpeedMPH,WindSpeedGustMPH,Humidity,HourlyPrecipIn,Conditions,Clouds,dailyrainin,SoftwareType,DateUTC
2014-10-21 00:03:00,55.1,52.1,28.81,WNW,296,5.6,7.8,89,0.00,,,-99.99,HOBO +U30 +Weather +,2014-10-21 04:03:00,
2014-10-21 00:13:00,55.0,52.1,28.81,WNW,302,8.9,13.4,89,0.00,,,-99.99,HOBO +U30 +Weather +,2014-10-21 04:13:00,
2014-10-21 00:23:00,54.7,51.9,28.81,NW,310,10.1,14.1,90,0.00,,,-99.99,HOBO +U30 +Weather +,2014-10-21 04:23:00,
2014-10-21 00:33:00,54.9,52.1,28.81,NW,310,6.3,9.6,90,0.00,,,-99.99,HOBO +U30 +Weather +,2014-10-21 04:33:00,
2014-10-21 00:43:00,54.6,51.8,28.81,NW,310,4.5,7.4,90,0.00,,,-99.99,HOBO +U30 +Weather +,2014-10-21 04:43:00,
2014-10-21 00:53:00,54.6,51.8,28.81,NW,314,5.1,8.5,90,0.00,,,-99.99,HOBO +U30 +Weather +,2014-10-21 04:53:00,
2014-10-21 01:03:00,54.3,51.7,28.81,NW,319,4.5,7.8,90,0.00,,,-99.99,HOBO +U30 +Weather +,2014-10-21 05:03:00,
2014-10-21 01:13:00,54.0,51.6,28.81,NW,314,5.6,9.6,91,0.00,,,-99.99,HOBO +U30 +Weather +,2014-10-21 05:13:00,
2014-10-21 01:23:00,54.1,51.7,28.81,NW,313,7.8,11.9,91,0.00,,,-99.99,HOBO +U30 +Weather +,2014-10-21 05:23:00,
2014-10-21 01:34:00,54.1,51.6,28.81,NW,312,10.1,13.4,91,0.00,,,-99.99,HOBO +U30 +Weather +,2014-10-21 05:34:00,
2014-10-21 01:43:00,54.0,51.6,28.81,NW,314,7.4,10.1,91,0.00,,,-99.99,HOBO +U30 +Weather +,2014-10-21 05:43:00,
2014-10-21 01:53:00,53.9,51.5,28.81,NW,312,7.8,11.2,91,0.00,,,-99.99,HOBO +U30 +Weather +,2014-10-21 05:53:00,
2014-10-21 02:03:00,53.8,51.3,28.81,NW,313,8.9,12.3,91,0.00,,,-99.99,HOBO +U30 +Weather +,2014-10-21 06:03:00,
2014-10-21 02:13:00,53.7,51.3,28.81,NW,310,9.6,13.0,91,0.00,,,-99.99,HOBO +U30 +Weather +,2014-10-21 06:13:00,
2014-10-21 02:23:00,53.4,51.1,28.81,NW,312,7.8,11.2,91,0.00,,,-99.99,HOBO +U30 +Weather +,2014-10-21 06:23:00,
2014-10-21 02:33:00,53.3,51.0,28.81,NW,312,7.8,11.9,91,0.00,,,-99.99,HOBO +U30 +Weather +,2014-10-21 06:33:00,
2014-10-21 02:43:00,53.0,50.8,28.81,NW,313,6.3,9.6,92,0.00,,,-99.99,HOBO +U30 +Weather +,2014-10-21 06:43:00,
2014-10-21 02:53:00,52.7,50.7,28.82,NW,310,4.5,6.3,92,0.00,,,-99.99,HOBO +U30 +Weather +,2014-10-21 06:53:00,
2014-10-21 03:03:00,52.5,50.6,28.82,NW,310,4.5,8.5,93,0.00,,,-99.99,HOBO +U30 +Weather +,2014-10-21 07:03:00,
2014-10-21 03:13:00,52.2,50.3,28.82,NW,313,5.1,7.4,93,0.00,,,-99.99,HOBO +U30 +Weather +,2014-10-21 07:13:00,
2014-10-21 03:23:00,51.8,50.0,28.82,NW,312,7.8,10.7,93,0.00,,,-99.99,HOBO +U30 +Weather +,2014-10-21 07:23:00,
2014-10-21 03:33:00,51.4,49.7,28.82,NW,310,7.8,11.9,93,0.00,,,-99.99,HOBO +U30 +Weather +,2014-10-21 07:33:00,
2014-10-21 03:43:00,51.2,49.4,28.82,NW,313,7.4,10.1,93,0.00,,,-99.99,HOBO +U30 +Weather +,2014-10-21 07:43:00,
2014-10-21 03:53:00,50.7,48.9,28.82,NW,309,6.7,8.9,93,0.00,,,-99.99,HOBO +U30 +Weather +,2014-10-21 07:53:00,
2014-10-21 04:03:00,50.3,48.7,28.82,NW,305,6.7,9.6,94,0.00,,,-99.99,HOBO +U30 +Weather +,2014-10-21 08:03:00,
2014-10-21 04:13:00,50.0,48.6,28.82,NW,305,7.8,11.9,94,0.00,,,-99.99,HOBO +U30 +Weather +,2014-10-21 08:13:00,
2014-10-21 04:23:00,49.8,48.4,28.82,NW,307,7.8,11.9,94,0.00,,,-99.99,HOBO +U30 +Weather +,2014-10-21 08:23:00,
2014-10-21 04:33:00,49.3,48.1,28.82,NW,305,6.7,10.1,95,0.00,,,-99.99,HOBO +U30 +Weather +,2014-10-21 08:33:00,
2014-10-21 04:43:00,48.9,47.8,28.83,WNW,303,5.6,8.5,95,0.00,,,-99.99,HOBO +U30 +Weather +,2014-10-21 08:43:00,
2014-10-21 04:53:00,48.7,47.7,28.83,WNW,300,6.3,9.6,96,0.00,,,-99.99,HOBO +U30 +Weather +,2014-10-21 08:53:00,
2014-10-21 05:03:00,48.6,47.6,28.83,WNW,303,6.3,8.9,96,0.00,,,-99.99,HOBO +U30 +Weather +,2014-10-21 09:03:00,
2014-10-21 05:13:00,48.4,47.4,28.83,WNW,303,6.7,11.2,96,0.00,,,-99.99,HOBO +U30 +Weather +,2014-10-21 09:13:00,
2014-10-21 05:23:00,48.2,47.3,28.83,NW,309,7.8,11.2,96,0.00,,,-99.99,HOBO +U30 +Weather +,2014-10-21 09:23:00,